createdAt,value
2022-12-11T00:00:41.253Z,100.00
2022-12-11T00:01:44.209Z,100.00
2022-12-11T00:02:47.252Z,100.00
2022-12-11T00:03:50.496Z,100.00
2022-12-11T00:04:53.336Z,100.00
2022-12-11T00:05:56.173Z,100.00
2022-12-11T00:07:02.290Z,100.00
2022-12-11T00:08:05.577Z,100.00
2022-12-11T00:09:08.733Z,100.00
2022-12-11T00:10:11.657Z,100.00
2022-12-11T00:11:16.781Z,100.00
2022-12-11T00:12:19.654Z,100.00
2022-12-11T00:13:22.455Z,100.00
2022-12-11T00:14:25.423Z,100.00
2022-12-11T00:15:28.732Z,100.00
2022-12-11T00:16:31.872Z,100.00
2022-12-11T00:17:34.932Z,100.00
2022-12-11T00:18:39.135Z,100.00
2022-12-11T00:19:41.978Z,100.00
2022-12-11T00:20:44.972Z,100.00
2022-12-11T00:21:47.864Z,100.00
2022-12-11T00:22:50.732Z,100.00
2022-12-11T00:23:53.655Z,100.00
2022-12-11T00:24:56.532Z,100.00
2022-12-11T00:25:59.416Z,100.00
2022-12-11T00:27:02.499Z,100.00
2022-12-11T00:28:05.381Z,100.00
2022-12-11T00:29:14.824Z,100.00
2022-12-11T00:30:17.709Z,100.00
2022-12-11T00:31:22.620Z,100.00
2022-12-11T00:32:28.323Z,100.00
2022-12-11T00:33:31.668Z,100.00
2022-12-11T00:34:34.814Z,100.00
2022-12-11T00:35:45.947Z,100.00
2022-12-11T00:36:49.064Z,100.00
2022-12-11T00:37:51.930Z,100.00
2022-12-11T00:38:55.582Z,100.00
2022-12-11T00:39:58.421Z,100.00
2022-12-11T00:41:01.416Z,100.00
2022-12-11T00:42:08.137Z,100.00
2022-12-11T00:43:11.575Z,100.00
2022-12-11T00:44:14.373Z,100.00
2022-12-11T00:45:17.308Z,100.00
2022-12-11T00:46:22.181Z,100.00
2022-12-11T00:47:25.383Z,100.00
2022-12-11T00:48:28.496Z,100.00
2022-12-11T00:49:31.421Z,100.00
2022-12-11T00:50:34.459Z,100.00
2022-12-11T00:51:37.353Z,100.00
2022-12-11T00:52:40.999Z,100.00
2022-12-11T00:53:44.582Z,100.00
2022-12-11T00:54:47.421Z,100.00
2022-12-11T00:55:50.344Z,100.00
2022-12-11T00:56:53.078Z,100.00
2022-12-11T00:57:58.580Z,100.00
2022-12-11T00:59:01.616Z,100.00
2022-12-11T01:00:09.637Z,100.00
2022-12-11T01:01:16.188Z,100.00
2022-12-11T01:02:19.230Z,100.00
2022-12-11T01:03:22.822Z,100.00
2022-12-11T01:04:25.816Z,100.00
2022-12-11T01:05:28.830Z,100.00
2022-12-11T01:06:35.256Z,100.00
2022-12-11T01:07:38.879Z,100.00
2022-12-11T01:08:42.627Z,100.00
2022-12-11T01:10:03.938Z,100.00
2022-12-11T01:11:10.295Z,100.00
2022-12-11T01:12:13.234Z,100.00
2022-12-11T01:13:16.548Z,100.00
2022-12-11T01:14:19.315Z,100.00
2022-12-11T01:15:24.129Z,100.00
2022-12-11T01:16:27.229Z,100.00
2022-12-11T01:17:30.264Z,100.00
2022-12-11T01:18:33.528Z,100.00
2022-12-11T01:19:37.576Z,100.00
2022-12-11T01:20:43.943Z,100.00
2022-12-11T01:21:46.767Z,100.00
2022-12-11T01:22:53.584Z,100.00
2022-12-11T01:23:56.497Z,100.00
2022-12-11T01:24:59.518Z,100.00
2022-12-11T01:26:13.858Z,100.00
2022-12-11T01:27:16.986Z,100.00
2022-12-11T01:28:19.932Z,100.00
2022-12-11T01:29:22.862Z,100.00
2022-12-11T01:30:26.769Z,100.00
2022-12-11T01:31:29.899Z,100.00
2022-12-11T01:32:32.989Z,100.00
2022-12-11T01:33:36.157Z,100.00
2022-12-11T01:34:39.386Z,100.00
2022-12-11T01:35:42.305Z,100.00
2022-12-11T01:36:45.318Z,100.00
2022-12-11T01:37:48.503Z,100.00
2022-12-11T01:38:51.552Z,100.00
2022-12-11T01:39:54.407Z,100.00
2022-12-11T01:40:57.146Z,100.00
2022-12-11T01:42:01.485Z,100.00
2022-12-11T01:43:08.084Z,100.00
2022-12-11T01:44:16.831Z,100.00
2022-12-11T01:45:24.676Z,100.00
2022-12-11T01:46:32.300Z,100.00
2022-12-11T01:47:35.469Z,100.00
2022-12-11T01:48:42.172Z,100.00
2022-12-11T01:49:45.394Z,100.00
2022-12-11T01:51:01.671Z,100.00
2022-12-11T01:52:16.563Z,100.00
2022-12-11T01:53:29.548Z,100.00
2022-12-11T01:54:32.936Z,100.00
2022-12-11T01:55:38.002Z,100.00
2022-12-11T01:56:44.240Z,100.00
2022-12-11T01:57:49.911Z,100.00
2022-12-11T01:59:00.632Z,100.00
2022-12-11T02:00:05.271Z,100.00
2022-12-11T02:01:10.546Z,100.00
2022-12-11T02:02:39.987Z,100.00
2022-12-11T02:03:43.091Z,100.00
2022-12-11T02:04:47.505Z,100.00
2022-12-11T02:05:50.979Z,100.00
2022-12-11T02:06:54.146Z,100.00
2022-12-11T02:08:01.829Z,100.00
2022-12-11T02:09:31.929Z,100.00
2022-12-11T02:11:07.638Z,100.00
2022-12-11T02:12:20.832Z,100.00
2022-12-11T02:13:32.893Z,100.00
2022-12-11T02:14:43.677Z,100.00
2022-12-11T02:16:03.295Z,100.00
2022-12-11T02:17:16.859Z,100.00
2022-12-11T02:18:44.579Z,100.00
2022-12-11T02:20:02.270Z,100.00
2022-12-11T02:21:16.870Z,100.00
2022-12-11T02:22:35.417Z,100.00
2022-12-11T02:24:03.305Z,100.00
2022-12-11T02:25:15.374Z,100.00
2022-12-11T02:26:56.534Z,100.00
2022-12-11T02:28:17.893Z,100.00
2022-12-11T02:29:33.057Z,100.00
2022-12-11T02:30:40.173Z,100.00
2022-12-11T02:31:51.747Z,100.00
2022-12-11T02:32:56.467Z,100.00
2022-12-11T02:34:25.596Z,100.00
2022-12-11T02:35:37.729Z,100.00
2022-12-11T02:36:45.800Z,100.00
2022-12-11T02:38:00.332Z,100.00
2022-12-11T02:39:06.017Z,100.00
2022-12-11T02:40:13.095Z,100.00
2022-12-11T02:41:17.547Z,100.00
2022-12-11T02:42:25.282Z,100.00
2022-12-11T02:43:32.765Z,100.00
2022-12-11T02:44:36.273Z,100.00
2022-12-11T02:45:42.160Z,100.00
2022-12-11T02:46:45.786Z,100.00
2022-12-11T02:47:49.932Z,100.00
2022-12-11T02:48:54.287Z,100.00
2022-12-11T02:50:01.553Z,100.00
2022-12-11T02:51:08.149Z,100.00
2022-12-11T02:52:15.099Z,100.00
2022-12-11T02:53:22.161Z,100.00
2022-12-11T02:54:30.778Z,100.00
2022-12-11T02:55:37.630Z,100.00
2022-12-11T02:57:12.614Z,100.00
2022-12-11T02:58:23.583Z,100.00
2022-12-11T02:59:34.895Z,100.00
2022-12-11T03:00:37.909Z,100.00
2022-12-11T03:01:40.914Z,100.00
2022-12-11T03:02:44.287Z,100.00
2022-12-11T03:03:48.026Z,100.00
2022-12-11T03:04:51.843Z,100.00
2022-12-11T03:05:54.690Z,100.00
2022-12-11T03:07:12.330Z,100.00
2022-12-11T03:08:17.814Z,100.00
2022-12-11T03:09:21.661Z,100.00
2022-12-11T03:10:24.753Z,100.00
2022-12-11T03:11:27.629Z,100.00
2022-12-11T03:12:34.765Z,100.00
2022-12-11T03:13:39.325Z,100.00
2022-12-11T03:14:43.379Z,100.00
2022-12-11T03:16:07.301Z,100.00
2022-12-11T03:17:10.230Z,100.00
2022-12-11T03:18:19.828Z,100.00
2022-12-11T03:19:34.508Z,100.00
2022-12-11T03:20:44.282Z,100.00
2022-12-11T03:22:00.895Z,100.00
2022-12-11T03:23:13.760Z,100.00
2022-12-11T03:24:51.801Z,100.00
2022-12-11T03:26:02.706Z,100.00
2022-12-11T03:27:29.029Z,100.00
2022-12-11T03:28:44.951Z,100.00
2022-12-11T03:30:09.530Z,100.00
2022-12-11T03:31:27.477Z,100.00
2022-12-11T03:32:44.986Z,100.00
2022-12-11T03:33:53.912Z,100.00
2022-12-11T03:35:19.369Z,100.00
2022-12-11T03:36:27.611Z,100.00
2022-12-11T03:37:35.438Z,100.00
2022-12-11T03:39:01.405Z,100.00
2022-12-11T03:40:13.676Z,100.00
2022-12-11T03:41:22.128Z,100.00
2022-12-11T03:42:27.074Z,100.00
2022-12-11T03:43:32.353Z,100.00
2022-12-11T03:44:36.790Z,100.00
2022-12-11T03:45:42.345Z,100.00
2022-12-11T03:46:47.374Z,100.00
2022-12-11T03:47:53.130Z,100.00
2022-12-11T03:49:01.748Z,100.00
2022-12-11T03:50:09.038Z,100.00
2022-12-11T03:51:12.103Z,100.00
2022-12-11T03:52:16.161Z,100.00
2022-12-11T03:53:24.137Z,100.00
2022-12-11T03:54:28.053Z,100.00
2022-12-11T03:55:33.286Z,100.00
2022-12-11T03:56:39.387Z,100.00
2022-12-11T03:57:42.666Z,100.00
2022-12-11T03:58:45.609Z,100.00
2022-12-11T03:59:49.803Z,100.00
2022-12-11T04:00:52.765Z,100.00
2022-12-11T04:01:55.912Z,100.00
2022-12-11T04:03:14.707Z,100.00
2022-12-11T04:04:24.180Z,100.00
2022-12-11T04:05:27.095Z,100.00
2022-12-11T04:06:30.099Z,100.00
2022-12-11T04:07:33.125Z,100.00
2022-12-11T04:08:36.015Z,100.00
2022-12-11T04:09:39.098Z,100.00
2022-12-11T04:10:42.644Z,100.00
2022-12-11T04:11:45.476Z,100.00
2022-12-11T04:12:48.504Z,100.00
2022-12-11T04:14:11.209Z,100.00
2022-12-11T04:15:14.109Z,100.00
2022-12-11T04:16:17.072Z,100.00
2022-12-11T04:17:38.552Z,100.00
2022-12-11T04:18:59.892Z,100.00
2022-12-11T04:20:22.203Z,100.00
2022-12-11T04:21:43.722Z,100.00
2022-12-11T04:23:05.182Z,100.00
2022-12-11T04:24:17.305Z,100.00
2022-12-11T04:25:20.225Z,100.00
2022-12-11T04:26:23.232Z,100.00
2022-12-11T04:27:45.210Z,100.00
2022-12-11T04:28:49.296Z,100.00
2022-12-11T04:29:52.055Z,100.00
2022-12-11T04:30:58.453Z,100.00
2022-12-11T04:32:01.430Z,100.00
2022-12-11T04:33:05.157Z,100.00
2022-12-11T04:34:08.085Z,100.00
2022-12-11T04:35:12.163Z,100.00
2022-12-11T04:36:15.602Z,100.00
2022-12-11T04:37:19.113Z,100.00
2022-12-11T04:38:22.043Z,100.00
2022-12-11T04:39:24.912Z,100.00
2022-12-11T04:40:28.758Z,100.00
2022-12-11T04:41:35.382Z,100.00
2022-12-11T04:42:38.445Z,100.00
2022-12-11T04:43:42.118Z,100.00
2022-12-11T04:44:45.033Z,100.00
2022-12-11T04:45:48.177Z,100.00
2022-12-11T04:46:51.211Z,100.00
2022-12-11T04:47:54.543Z,100.00
2022-12-11T04:48:58.152Z,100.00
2022-12-11T04:50:04.131Z,100.00
2022-12-11T04:51:09.319Z,100.00
2022-12-11T04:52:12.143Z,100.00
2022-12-11T04:53:16.357Z,100.00
2022-12-11T04:54:19.373Z,100.00
2022-12-11T04:55:25.373Z,100.00
2022-12-11T04:56:28.634Z,100.00
2022-12-11T04:57:31.445Z,100.00
2022-12-11T04:58:36.214Z,100.00
2022-12-11T04:59:39.150Z,100.00
2022-12-11T05:00:42.820Z,100.00
2022-12-11T05:01:45.700Z,100.00
2022-12-11T05:02:48.694Z,100.00
2022-12-11T05:03:51.622Z,100.00
2022-12-11T05:04:54.456Z,100.00
2022-12-11T05:05:57.307Z,100.00
2022-12-11T05:07:00.734Z,100.00
2022-12-11T05:08:04.150Z,100.00
2022-12-11T05:09:07.012Z,100.00
2022-12-11T05:10:10.575Z,100.00
2022-12-11T05:11:15.716Z,100.00
2022-12-11T05:12:18.741Z,100.00
2022-12-11T05:13:21.513Z,100.00
2022-12-11T05:14:24.763Z,100.00
2022-12-11T05:15:27.724Z,100.00
2022-12-11T05:16:30.831Z,100.00
2022-12-11T05:17:34.483Z,100.00
2022-12-11T05:18:37.629Z,100.00
2022-12-11T05:19:40.706Z,100.00
2022-12-11T05:20:43.780Z,100.00
2022-12-11T05:21:46.751Z,100.00
2022-12-11T05:22:49.719Z,100.00
2022-12-11T05:23:52.499Z,100.00
2022-12-11T05:24:55.335Z,100.00
2022-12-11T05:26:02.190Z,100.00
2022-12-11T05:27:05.012Z,100.00
2022-12-11T05:28:07.872Z,100.00
2022-12-11T05:29:11.112Z,100.00
2022-12-11T05:30:14.118Z,100.00
2022-12-11T05:31:20.409Z,100.00
2022-12-11T05:32:23.364Z,100.00
2022-12-11T05:33:27.003Z,100.00
2022-12-11T05:34:30.041Z,100.00
2022-12-11T05:35:33.034Z,100.00
2022-12-11T05:36:36.301Z,100.00
2022-12-11T05:37:39.254Z,100.00
2022-12-11T05:38:42.174Z,100.00
2022-12-11T05:39:45.182Z,100.00
2022-12-11T05:41:05.545Z,100.00
2022-12-11T05:42:08.336Z,100.00
2022-12-11T05:43:11.255Z,100.00
2022-12-11T05:44:17.395Z,100.00
2022-12-11T05:45:20.454Z,100.00
2022-12-11T05:46:26.433Z,100.00
2022-12-11T05:47:29.272Z,100.00
2022-12-11T05:48:35.361Z,100.00
2022-12-11T05:49:38.299Z,100.00
2022-12-11T05:50:41.196Z,100.00
2022-12-11T05:51:44.200Z,100.00
2022-12-11T05:52:47.016Z,99.82
2022-12-11T05:53:52.384Z,99.86
2022-12-11T05:54:55.066Z,99.92
2022-12-11T05:56:05.299Z,100.00
2022-12-11T05:57:08.507Z,99.99
2022-12-11T05:58:11.472Z,99.83
2022-12-11T05:59:14.336Z,99.56
2022-12-11T06:00:17.308Z,99.49
2022-12-11T06:01:26.061Z,99.79
2022-12-11T06:02:29.160Z,100.00
2022-12-11T06:03:32.166Z,100.00
2022-12-11T06:04:35.108Z,100.00
2022-12-11T06:05:39.598Z,100.00
2022-12-11T06:06:44.090Z,100.00
2022-12-11T06:07:47.127Z,100.00
2022-12-11T06:08:51.727Z,100.00
2022-12-11T06:09:54.702Z,100.00
2022-12-11T06:10:58.154Z,100.00
2022-12-11T06:12:01.002Z,100.00
2022-12-11T06:13:04.290Z,100.00
2022-12-11T06:14:07.534Z,100.00
2022-12-11T06:15:11.183Z,100.00
2022-12-11T06:16:14.848Z,100.00
2022-12-11T06:17:17.800Z,100.00
2022-12-11T06:18:20.873Z,99.85
2022-12-11T06:19:24.113Z,100.00
2022-12-11T06:20:27.221Z,100.00
2022-12-11T06:21:32.255Z,100.00
2022-12-11T06:22:35.103Z,100.00
2022-12-11T06:23:37.903Z,100.00
2022-12-11T06:24:40.772Z,100.00
2022-12-11T06:25:43.663Z,100.00
2022-12-11T06:26:46.610Z,100.00
2022-12-11T06:27:50.616Z,100.00
2022-12-11T06:28:53.735Z,99.99
2022-12-11T06:29:56.574Z,99.83
2022-12-11T06:31:00.379Z,100.00
2022-12-11T06:32:03.668Z,100.00
2022-12-11T06:33:07.258Z,100.00
2022-12-11T06:34:13.186Z,99.80
2022-12-11T06:35:16.054Z,99.60
2022-12-11T06:36:20.911Z,99.45
2022-12-11T06:37:27.133Z,99.54
2022-12-11T06:38:30.062Z,99.68
2022-12-11T06:39:33.257Z,99.77
2022-12-11T06:40:36.158Z,99.91
2022-12-11T06:41:43.987Z,100.00
2022-12-11T06:42:46.866Z,100.00
2022-12-11T06:43:50.973Z,99.95
2022-12-11T06:44:53.740Z,99.92
2022-12-11T06:46:02.097Z,99.87
2022-12-11T06:47:06.575Z,99.87
2022-12-11T06:48:09.977Z,99.71
2022-12-11T06:49:12.817Z,99.69
2022-12-11T06:50:15.737Z,99.87
2022-12-11T06:51:21.380Z,99.91
2022-12-11T06:52:26.064Z,99.84
2022-12-11T06:53:29.124Z,100.00
2022-12-11T06:54:32.217Z,99.94
2022-12-11T06:55:36.373Z,99.35
2022-12-11T06:56:39.214Z,99.22
2022-12-11T06:57:42.104Z,99.44
2022-12-11T06:58:48.454Z,99.55
2022-12-11T06:59:51.657Z,99.41
2022-12-11T07:00:54.521Z,99.23
2022-12-11T07:01:57.630Z,99.23
2022-12-11T07:03:00.575Z,98.92
2022-12-11T07:04:03.498Z,98.92
2022-12-11T07:05:07.177Z,99.08
2022-12-11T07:06:10.376Z,99.10
2022-12-11T07:07:13.628Z,99.07
2022-12-11T07:08:16.801Z,98.74
2022-12-11T07:09:20.114Z,98.81
2022-12-11T07:10:23.398Z,98.99
2022-12-11T07:11:26.187Z,99.24
2022-12-11T07:12:28.955Z,99.34
2022-12-11T07:13:32.369Z,99.52
2022-12-11T07:14:35.348Z,99.51
2022-12-11T07:15:40.490Z,99.56
2022-12-11T07:16:43.662Z,99.52
2022-12-11T07:17:46.601Z,99.13
2022-12-11T07:18:51.786Z,98.93
2022-12-11T07:19:54.855Z,98.75
2022-12-11T07:21:01.157Z,98.71
2022-12-11T07:22:03.934Z,98.50
2022-12-11T07:23:06.968Z,98.57
2022-12-11T07:24:09.965Z,98.65
2022-12-11T07:25:12.977Z,98.62
2022-12-11T07:26:19.715Z,98.86
2022-12-11T07:27:22.783Z,98.76
2022-12-11T07:28:26.519Z,98.31
2022-12-11T07:29:29.418Z,97.99
2022-12-11T07:30:32.264Z,97.99
2022-12-11T07:31:35.441Z,97.91
2022-12-11T07:32:38.445Z,98.00
2022-12-11T07:33:42.538Z,98.02
2022-12-11T07:34:51.397Z,98.08
2022-12-11T07:35:54.692Z,97.97
2022-12-11T07:36:57.627Z,97.84
2022-12-11T07:38:00.727Z,97.34
2022-12-11T07:39:03.909Z,97.07
2022-12-11T07:40:08.178Z,97.26
2022-12-11T07:41:13.322Z,97.23
2022-12-11T07:42:20.130Z,97.28
2022-12-11T07:43:23.087Z,97.37
2022-12-11T07:44:25.974Z,97.26
2022-12-11T07:45:29.825Z,96.92
2022-12-11T07:46:33.982Z,96.93
2022-12-11T07:47:37.025Z,96.44
2022-12-11T07:48:45.415Z,96.37
2022-12-11T07:49:48.689Z,96.41
2022-12-11T07:50:51.484Z,96.15
2022-12-11T07:51:54.334Z,96.04
2022-12-11T07:52:57.277Z,95.55
2022-12-11T07:54:02.815Z,95.71
2022-12-11T07:55:06.232Z,96.13
2022-12-11T07:56:09.368Z,95.97
2022-12-11T07:57:14.368Z,96.26
2022-12-11T07:58:17.967Z,96.66
2022-12-11T07:59:21.420Z,96.97
2022-12-11T08:00:24.316Z,97.17
2022-12-11T08:01:33.707Z,97.44
2022-12-11T08:02:38.140Z,97.70
2022-12-11T08:03:41.108Z,97.45
2022-12-11T08:04:47.175Z,96.92
2022-12-11T08:05:51.840Z,96.67
2022-12-11T08:08:02.775Z,96.29
2022-12-11T08:09:09.174Z,96.17
2022-12-11T08:10:12.214Z,96.11
2022-12-11T08:11:17.310Z,96.39
2022-12-11T08:12:20.130Z,96.67
2022-12-11T08:13:22.926Z,96.20
2022-12-11T08:14:25.843Z,96.18
2022-12-11T08:15:28.572Z,96.15
2022-12-11T08:16:33.121Z,96.22
2022-12-11T08:17:40.048Z,95.87
2022-12-11T08:18:45.510Z,95.94
2022-12-11T08:19:48.294Z,95.68
2022-12-11T08:20:51.631Z,95.86
2022-12-11T08:21:54.432Z,96.00
2022-12-11T08:22:59.351Z,95.92
2022-12-11T08:24:02.454Z,95.76
2022-12-11T08:25:09.593Z,95.80
2022-12-11T08:26:19.195Z,95.92
2022-12-11T08:27:22.467Z,95.99
2022-12-11T08:28:27.168Z,96.07
2022-12-11T08:29:30.305Z,95.65
2022-12-11T08:30:33.269Z,94.20
2022-12-11T08:31:42.158Z,94.37
2022-12-11T08:32:45.141Z,94.76
2022-12-11T08:33:48.926Z,95.14
2022-12-11T08:34:56.129Z,95.19
2022-12-11T08:35:59.045Z,94.30
2022-12-11T08:37:01.871Z,93.66
2022-12-11T08:38:05.170Z,93.82
2022-12-11T08:39:09.896Z,94.24
2022-12-11T08:40:12.910Z,94.57
2022-12-11T08:41:20.108Z,94.43
2022-12-11T08:42:22.921Z,94.73
2022-12-11T08:43:25.912Z,95.34
2022-12-11T08:44:28.809Z,95.50
2022-12-11T08:45:33.333Z,95.30
2022-12-11T08:46:36.785Z,94.96
2022-12-11T08:47:43.162Z,94.90
2022-12-11T08:48:47.100Z,94.43
2022-12-11T08:49:49.935Z,94.29
2022-12-11T08:50:52.678Z,94.37
2022-12-11T08:51:55.515Z,94.42
2022-12-11T08:52:58.722Z,94.57
2022-12-11T08:54:01.857Z,95.14
2022-12-11T08:55:04.923Z,95.65
2022-12-11T08:56:10.939Z,95.27
2022-12-11T08:57:14.385Z,95.03
2022-12-11T08:58:18.734Z,94.49
2022-12-11T08:59:21.966Z,94.07
2022-12-11T09:00:24.848Z,94.18
2022-12-11T09:01:28.460Z,94.32
2022-12-11T09:02:31.596Z,94.32
2022-12-11T09:03:34.717Z,94.54
2022-12-11T09:04:37.477Z,94.71
2022-12-11T09:05:40.556Z,94.29
2022-12-11T09:06:47.337Z,94.16
2022-12-11T09:07:50.427Z,93.85
2022-12-11T09:08:54.537Z,93.96
2022-12-11T09:09:57.335Z,94.11
2022-12-11T09:11:05.416Z,94.19
2022-12-11T09:12:08.471Z,94.49
2022-12-11T09:13:11.329Z,94.33
2022-12-11T09:14:16.363Z,94.27
2022-12-11T09:15:19.384Z,94.13
2022-12-11T09:16:25.495Z,93.32
2022-12-11T09:17:28.438Z,93.16
2022-12-11T09:18:31.983Z,92.67
2022-12-11T09:19:34.832Z,92.59
2022-12-11T09:20:38.212Z,92.94
2022-12-11T09:21:43.062Z,92.80
2022-12-11T09:22:46.338Z,92.77
2022-12-11T09:23:53.183Z,92.48
2022-12-11T09:24:56.118Z,92.95
2022-12-11T09:25:59.796Z,93.07
2022-12-11T09:27:03.465Z,92.08
2022-12-11T09:28:06.579Z,92.28
2022-12-11T09:29:11.187Z,91.97
2022-12-11T09:30:14.557Z,91.74
2022-12-11T09:31:20.901Z,91.67
2022-12-11T09:32:23.768Z,91.92
2022-12-11T09:33:26.746Z,92.47
2022-12-11T09:34:29.771Z,92.43
2022-12-11T09:35:36.175Z,92.96
2022-12-11T09:36:40.528Z,93.15
2022-12-11T09:37:43.398Z,93.04
2022-12-11T09:38:46.868Z,92.46
2022-12-11T09:39:49.727Z,92.13
2022-12-11T09:40:52.560Z,92.45
2022-12-11T09:42:07.558Z,92.44
2022-12-11T09:43:31.655Z,92.25
2022-12-11T09:44:53.412Z,92.16
2022-12-11T09:45:56.742Z,91.81
2022-12-11T09:47:00.088Z,91.97
2022-12-11T09:48:08.110Z,91.88
2022-12-11T09:49:26.010Z,91.38
2022-12-11T09:50:33.295Z,91.42
2022-12-11T09:52:00.381Z,91.34
2022-12-11T09:53:11.279Z,90.91
2022-12-11T09:54:15.173Z,91.77
2022-12-11T09:55:25.956Z,92.26
2022-12-11T09:56:42.922Z,92.05
2022-12-11T09:57:45.798Z,91.41
2022-12-11T09:58:58.663Z,91.01
2022-12-11T10:00:18.191Z,91.02
2022-12-11T10:01:27.367Z,91.42
2022-12-11T10:02:46.497Z,91.82
2022-12-11T10:04:13.899Z,92.30
2022-12-11T10:05:16.755Z,92.28
2022-12-11T10:06:30.661Z,92.50
2022-12-11T10:07:36.512Z,91.29
2022-12-11T10:09:24.651Z,90.43
2022-12-11T10:10:39.422Z,89.75
2022-12-11T10:11:45.380Z,90.51
2022-12-11T10:13:02.139Z,90.10
2022-12-11T10:14:20.515Z,89.86
2022-12-11T10:15:46.198Z,90.14
2022-12-11T10:17:08.223Z,90.56
2022-12-11T10:18:17.571Z,90.86
2022-12-11T10:19:28.017Z,91.07
2022-12-11T10:20:39.731Z,91.30
2022-12-11T10:21:42.788Z,90.89
2022-12-11T10:22:46.206Z,91.55
2022-12-11T10:23:54.495Z,91.47
2022-12-11T10:25:16.557Z,90.98
2022-12-11T10:26:22.473Z,91.03
2022-12-11T10:27:33.594Z,91.00
2022-12-11T10:28:37.029Z,90.74
2022-12-11T10:29:43.155Z,91.14
2022-12-11T10:31:04.981Z,91.37
2022-12-11T10:32:18.743Z,90.72
2022-12-11T10:33:27.422Z,90.92
2022-12-11T10:34:37.948Z,91.46
2022-12-11T10:35:48.133Z,91.16
2022-12-11T10:36:52.818Z,91.07
2022-12-11T10:38:12.505Z,90.94
2022-12-11T10:39:21.726Z,91.07
2022-12-11T10:40:26.228Z,91.18
2022-12-11T10:41:38.940Z,90.68
2022-12-11T10:42:55.203Z,90.39
2022-12-11T10:43:58.117Z,90.55
2022-12-11T10:45:04.316Z,90.95
2022-12-11T10:46:15.023Z,91.31
2022-12-11T10:47:18.861Z,90.60
2022-12-11T10:48:22.391Z,90.41
2022-12-11T10:49:30.419Z,91.05
2022-12-11T10:50:33.556Z,91.49
2022-12-11T10:51:37.991Z,91.15
2022-12-11T10:52:45.698Z,91.53
2022-12-11T10:54:04.015Z,92.11
2022-12-11T10:55:18.536Z,92.12
2022-12-11T10:56:29.549Z,92.05
2022-12-11T10:57:37.319Z,91.88
2022-12-11T10:58:50.245Z,92.04
2022-12-11T10:59:53.292Z,91.23
2022-12-11T11:01:16.895Z,90.79
2022-12-11T11:02:45.471Z,90.46
2022-12-11T11:04:03.444Z,90.68
2022-12-11T11:05:27.819Z,90.48
2022-12-11T11:06:31.075Z,91.01
2022-12-11T11:07:34.595Z,90.75
2022-12-11T11:08:44.353Z,91.08
2022-12-11T11:09:47.430Z,91.20
2022-12-11T11:10:58.931Z,91.28
2022-12-11T11:12:07.666Z,91.56
2022-12-11T11:13:13.921Z,91.78
2022-12-11T11:14:25.963Z,91.77
2022-12-11T11:15:34.182Z,91.91
2022-12-11T11:16:42.340Z,92.27
2022-12-11T11:17:55.966Z,92.31
2022-12-11T11:18:59.228Z,91.63
2022-12-11T11:20:13.552Z,90.85
2022-12-11T11:21:19.240Z,90.99
2022-12-11T11:22:22.363Z,90.75
2022-12-11T11:23:26.302Z,90.99
2022-12-11T11:24:37.024Z,91.77
2022-12-11T11:25:40.656Z,91.99
2022-12-11T11:27:12.327Z,91.39
2022-12-11T11:28:16.126Z,91.44
2022-12-11T11:29:32.258Z,90.60
2022-12-11T11:30:46.130Z,90.87
2022-12-11T11:31:48.950Z,90.77
2022-12-11T11:32:56.586Z,89.86
2022-12-11T11:34:05.630Z,89.33
2022-12-11T11:35:11.807Z,89.31
2022-12-11T11:36:21.108Z,89.48
2022-12-11T11:37:32.526Z,89.69
2022-12-11T11:39:01.552Z,89.82
2022-12-11T11:40:16.861Z,90.24
2022-12-11T11:41:39.162Z,90.80
2022-12-11T11:43:08.211Z,90.84
2022-12-11T11:44:20.513Z,91.29
2022-12-11T11:45:35.921Z,91.04
2022-12-11T11:46:46.583Z,90.96
2022-12-11T11:48:11.439Z,91.17
2022-12-11T11:49:14.648Z,91.10
2022-12-11T11:50:27.331Z,90.58
2022-12-11T11:51:50.949Z,90.89
2022-12-11T11:53:20.474Z,90.99
2022-12-11T11:54:33.701Z,91.53
2022-12-11T11:56:18.408Z,91.66
2022-12-11T11:58:04.667Z,91.43
2022-12-11T11:59:16.272Z,90.45
2022-12-11T12:00:28.845Z,89.94
2022-12-11T12:01:36.728Z,90.24
2022-12-11T12:02:42.085Z,89.87
2022-12-11T12:03:47.362Z,90.19
2022-12-11T12:04:51.521Z,90.10
2022-12-11T12:06:14.719Z,89.94
2022-12-11T12:07:36.633Z,89.85
2022-12-11T12:08:51.479Z,89.75
2022-12-11T12:10:16.958Z,89.81
2022-12-11T12:11:22.833Z,90.30
2022-12-11T12:12:43.784Z,90.06
2022-12-11T12:14:43.580Z,88.79
2022-12-11T12:15:56.373Z,89.50
2022-12-11T12:17:11.316Z,90.23
2022-12-11T12:18:27.194Z,88.87
2022-12-11T12:19:53.208Z,88.46
2022-12-11T12:21:27.920Z,88.52
2022-12-11T12:22:54.925Z,88.64
2022-12-11T12:24:12.388Z,88.68
2022-12-11T12:25:34.492Z,89.12
2022-12-11T12:26:41.663Z,89.38
2022-12-11T12:28:14.614Z,89.38
2022-12-11T12:29:46.810Z,89.09
2022-12-11T12:30:55.838Z,89.46
2022-12-11T12:32:28.769Z,89.74
2022-12-11T12:33:39.438Z,89.85
2022-12-11T12:34:52.197Z,89.81
2022-12-11T12:36:37.798Z,88.85
2022-12-11T12:38:01.306Z,87.43
2022-12-11T12:39:28.605Z,87.67
2022-12-11T12:40:46.788Z,88.15
2022-12-11T12:42:16.373Z,87.75
2022-12-11T12:43:27.489Z,88.01
2022-12-11T12:44:44.797Z,87.52
2022-12-11T12:46:20.191Z,87.30
2022-12-11T12:47:23.836Z,86.75
2022-12-11T12:48:27.656Z,87.47
2022-12-11T12:49:40.161Z,87.51
2022-12-11T12:50:47.008Z,87.93
2022-12-11T12:51:52.422Z,88.31
2022-12-11T12:52:56.783Z,87.76
2022-12-11T12:54:06.568Z,87.90
2022-12-11T12:55:18.636Z,88.14
2022-12-11T12:56:22.925Z,88.20
2022-12-11T12:57:25.834Z,88.46
2022-12-11T12:58:40.059Z,88.59
2022-12-11T12:59:46.441Z,89.43
2022-12-11T13:00:49.677Z,90.02
2022-12-11T13:02:02.103Z,90.06
2022-12-11T13:03:33.156Z,89.91
2022-12-11T13:04:55.429Z,90.06
2022-12-11T13:06:03.694Z,90.09
2022-12-11T13:07:30.237Z,90.42
2022-12-11T13:08:50.695Z,89.95
2022-12-11T13:10:00.728Z,89.19
2022-12-11T13:11:10.543Z,88.43
2022-12-11T13:12:16.163Z,88.12
2022-12-11T13:13:50.223Z,88.22
2022-12-11T13:14:57.575Z,88.86
2022-12-11T13:16:23.853Z,88.23
2022-12-11T13:17:37.833Z,88.53
2022-12-11T13:18:42.799Z,88.29
2022-12-11T13:19:46.219Z,87.93
2022-12-11T13:20:52.182Z,87.47
2022-12-11T13:22:14.956Z,87.05
2022-12-11T13:23:28.005Z,87.19
2022-12-11T13:24:34.955Z,85.92
2022-12-11T13:25:59.471Z,85.36
2022-12-11T13:27:27.717Z,86.42
2022-12-11T13:28:52.141Z,86.48
2022-12-11T13:30:16.857Z,86.30
2022-12-11T13:31:20.207Z,86.37
2022-12-11T13:32:31.374Z,85.41
2022-12-11T13:33:41.988Z,85.50
2022-12-11T13:34:53.450Z,86.10
2022-12-11T13:36:17.823Z,86.46
2022-12-11T13:37:32.080Z,86.70
2022-12-11T13:38:37.361Z,86.79
2022-12-11T13:39:40.893Z,86.82
2022-12-11T13:40:45.728Z,86.80
2022-12-11T13:42:01.841Z,87.18
2022-12-11T13:43:09.106Z,87.95
2022-12-11T13:44:20.488Z,87.77
2022-12-11T13:45:31.152Z,87.53
2022-12-11T13:46:38.188Z,87.75
2022-12-11T13:47:41.741Z,88.00
2022-12-11T13:49:19.066Z,87.57
2022-12-11T13:50:30.399Z,87.88
2022-12-11T13:51:38.181Z,87.53
2022-12-11T13:52:41.021Z,87.12
2022-12-11T13:53:44.038Z,87.35
2022-12-11T13:54:52.141Z,87.55
2022-12-11T13:56:08.059Z,87.83
2022-12-11T13:57:21.515Z,88.16
2022-12-11T13:58:25.940Z,88.52
2022-12-11T13:59:35.874Z,87.64
2022-12-11T14:00:39.634Z,87.60
2022-12-11T14:01:42.554Z,87.60
2022-12-11T14:02:45.750Z,88.01
2022-12-11T14:03:55.249Z,86.61
2022-12-11T14:05:04.868Z,86.00
2022-12-11T14:06:18.265Z,86.47
2022-12-11T14:07:28.609Z,87.03
2022-12-11T14:08:37.761Z,87.26
2022-12-11T14:09:45.838Z,87.65
2022-12-11T14:10:53.778Z,87.94
2022-12-11T14:11:59.375Z,87.75
2022-12-11T14:13:03.670Z,87.60
2022-12-11T14:14:21.956Z,87.86
2022-12-11T14:15:26.474Z,88.37
2022-12-11T14:16:30.333Z,88.21
2022-12-11T14:17:35.679Z,88.41
2022-12-11T14:18:42.190Z,88.78
2022-12-11T14:19:48.140Z,89.06
2022-12-11T14:21:01.184Z,88.61
2022-12-11T14:22:09.539Z,88.41
2022-12-11T14:23:23.028Z,88.60
2022-12-11T14:24:26.476Z,88.50